Time;durP1;ratioP1;P1;durP2;ratioP2;P2;SDS_P1;SDS_P2;PMS_P1;PMS_P2;Temp;Humidity;BMP_temperature;BMP_pressure;BME280_temperature;BME280_humidity;BME280_pressure;Samples;Min_cycle;Max_cycle;Signal;HPM_P1;HPM_P2
2023/10/02 00:01:48;;;;;;;;;;;;;;;;;;5112553;28;721;-65
2023/10/02 00:04:17;;;;;;;;;;;;;;;;;;5112138;28;994;-65
2023/10/02 00:06:43;;;;;;;;;;;;;;;;;;5113107;28;848;-66
2023/10/02 00:09:08;;;;;;;;;;;;;;;;;;5111980;28;1910;-65
2023/10/02 00:11:37;;;;;;;;;;;;;;;;;;5112454;28;879;-64
2023/10/02 00:14:21;;;;;;;;;;;;;;;;;;5111471;28;952;-65
2023/10/02 00:17:14;;;;;;;;;;;;;;;;;;5112447;28;840;-65
2023/10/02 00:19:38;;;;;;;;;;;;;;;;;;5112156;28;1160;-65
2023/10/02 00:22:07;;;;;;;;;;;;;;;;;;5111926;28;852;-65
2023/10/02 00:24:38;;;;;;;;;;;;;;;;;;5112386;28;820;-65
2023/10/02 00:27:04;;;;;;;;;;;;;;;;;;5112080;28;821;-65
2023/10/02 00:29:30;;;;;;;;;;;;;;;;;;5111957;28;1897;-65
2023/10/02 00:31:56;;;;;;;;;;;;;;;;;;5112404;28;973;-65
2023/10/02 00:34:30;;;;;;;;;;;;;;;;;;5110412;28;1086;-65
2023/10/02 00:37:00;;;;;;;;;;;;;;;;;;5111716;28;872;-65
2023/10/02 00:39:27;;;;;;;;;;;;;;;;;;5111404;28;1091;-65
2023/10/02 00:42:16;;;;;;;;;;;;;;;;;;5110848;28;1036;-65
2023/10/02 00:45:02;;;;;;;;;;;;;;;;;;5111564;28;966;-65
2023/10/02 00:47:41;;;;;;;;;;;;;;;;;;5114667;28;1906;-65
2023/10/02 00:50:07;;;;;;;;;;;;;;;;;;5115566;28;914;-65
2023/10/02 00:52:33;;;;;;;;;;;;;;;;;;5114201;28;1203;-65
2023/10/02 00:55:05;;;;;;;;;;;;;;;;;;5115765;28;839;-65
2023/10/02 00:57:30;;;;;;;;;;;;;;;;;;5115226;27;867;-65
2023/10/02 00:59:59;;;;;;;;;;;;;;;;;;5115807;28;911;-65
2023/10/02 01:02:24;;;;;;;;;;;;;;;;;;5115422;28;847;-65
2023/10/02 01:04:51;;;;;;;;;;;;;;;;;;5115384;28;982;-65
2023/10/02 01:07:17;;;;;;;;;;;;;;;;;;5115343;28;1894;-65
2023/10/02 01:10:06;;;;;;;;;;;;;;;;;;5115728;28;1068;-65
2023/10/02 01:12:38;;;;;;;;;;;;;;;;;;5115269;28;1015;-65
2023/10/02 01:15:08;;;;;;;;;;;;;;;;;;5115294;28;942;-65
2023/10/02 01:17:34;;;;;;;;;;;;;;;;;;5115288;28;927;-65
2023/10/02 01:20:04;;;;;;;;;;;;;;;;;;5097181;28;1202;-65
2023/10/02 01:22:38;;;;;;;;;;;;;;;;;;5115496;28;844;-65
2023/10/02 01:25:13;;;;;;;;;;;;;;;;;;5113617;28;931;-65
2023/10/02 01:27:50;;;;;;;;;;;;;;;;;;5115505;28;1913;-66
2023/10/02 01:30:17;;;;;;;;;;;;;;;;;;5114883;28;882;-66
2023/10/02 01:33:06;;;;;;;;;;;;;;;;;;5114060;28;875;-65
2023/10/02 01:35:32;;;;;;;;;;;;;;;;;;5114253;28;1428;-64
2023/10/02 01:37:58;;;;;;;;;;;;;;;;;;5116383;28;1049;-65
2023/10/02 01:40:33;;;;;;;;;;;;;;;;;;5116204;28;816;-64
2023/10/02 01:43:12;;;;;;;;;;;;;;;;;;5115862;28;903;-65
2023/10/02 01:45:42;;;;;;;;;;;;;;;;;;5116219;28;875;-65
2023/10/02 01:48:08;;;;;;;;;;;;;;;;;;5115039;28;1917;-65
2023/10/02 01:50:36;;;;;;;;;;;;;;;;;;5114857;28;1096;-65
2023/10/02 01:53:05;;;;;;;;;;;;;;;;;;5114317;28;1269;-65
2023/10/02 01:55:31;;;;;;;;;;;;;;;;;;5114415;28;885;-65
2023/10/02 01:58:16;;;;;;;;;;;;;;;;;;5114075;28;1149;-65
2023/10/02 02:00:42;;;;;;;;;;;;;;;;;;5115129;28;1747;-65
2023/10/02 02:03:17;;;;;;;;;;;;;;;;;;5114582;28;859;-65
2023/10/02 02:05:46;;;;;;;;;;;;;;;;;;5114824;28;974;-65
2023/10/02 02:08:21;;;;;;;;;;;;;;;;;;5114055;28;1905;-65
2023/10/02 02:10:48;;;;;;;;;;;;;;;;;;5114188;28;954;-65
2023/10/02 02:13:14;;;;;;;;;;;;;;;;;;5112809;28;1210;-66
2023/10/02 02:15:44;;;;;;;;;;;;;;;;;;5112731;28;1018;-66
2023/10/02 02:18:09;;;;;;;;;;;;;;;;;;5113826;27;986;-66
2023/10/02 02:20:44;;;;;;;;;;;;;;;;;;5113970;28;1045;-66
2023/10/02 02:23:14;;;;;;;;;;;;;;;;;;5113363;28;850;-66
2023/10/02 02:25:39;;;;;;;;;;;;;;;;;;5113777;28;899;-66
2023/10/02 02:28:06;;;;;;;;;;;;;;;;;;5114003;28;1901;-66
2023/10/02 02:30:40;;;;;;;;;;;;;;;;;;5114094;28;871;-66
2023/10/02 02:33:07;;;;;;;;;;;;;;;;;;5113801;28;832;-65
2023/10/02 02:35:35;;;;;;;;;;;;;;;;;;5112801;28;1286;-66
2023/10/02 02:38:02;;;;;;;;;;;;;;;;;;5113897;28;1265;-66
2023/10/02 02:40:30;;;;;;;;;;;;;;;;;;5113030;28;857;-66
2023/10/02 02:42:56;;;;;;;;;;;;;;;;;;5114661;28;844;-66
2023/10/02 02:45:28;;;;;;;;;;;;;;;;;;5113669;28;891;-66
2023/10/02 02:48:04;;;;;;;;;;;;;;;;;;5113830;28;1973;-65
2023/10/02 02:50:36;;;;;;;;;;;;;;;;;;5111958;28;864;-66
2023/10/02 02:53:17;;;;;;;;;;;;;;;;;;5113955;28;856;-66
2023/10/02 02:55:45;;;;;;;;;;;;;;;;;;5113296;28;918;-66
2023/10/02 02:58:11;;;;;;;;;;;;;;;;;;5111794;28;741;-65
2023/10/02 03:00:40;;;;;;;;;;;;;;;;;;5113306;28;824;-66
2023/10/02 03:03:32;;;;;;;;;;;;;;;;;;5113163;28;825;-66
2023/10/02 03:05:52;;;;;;;;;;;;;;;;;;5113093;28;976;-66
2023/10/02 03:08:18;;;;;;;;;;;;;;;;;;5111978;28;1901;-65
2023/10/02 03:10:46;;;;;;;;;;;;;;;;;;5113246;28;963;-65
2023/10/02 03:13:17;;;;;;;;;;;;;;;;;;5113182;28;895;-65
2023/10/02 03:15:45;;;;;;;;;;;;;;;;;;5113824;28;955;-65
2023/10/02 03:18:24;;;;;;;;;;;;;;;;;;5113066;28;900;-65
2023/10/02 03:20:50;;;;;;;;;;;;;;;;;;5113604;28;930;-65
2023/10/02 03:23:18;;;;;;;;;;;;;;;;;;5113449;28;938;-65
2023/10/02 03:25:45;;;;;;;;;;;;;;;;;;5113057;28;808;-65
2023/10/02 03:28:27;;;;;;;;;;;;;;;;;;5113063;28;1964;-65
2023/10/02 03:30:52;;;;;;;;;;;;;;;;;;5113408;28;1354;-65
2023/10/02 03:33:18;;;;;;;;;;;;;;;;;;5113975;28;904;-65
2023/10/02 03:36:02;;;;;;;;;;;;;;;;;;5113710;28;879;-65
2023/10/02 03:38:33;;;;;;;;;;;;;;;;;;5113493;28;1366;-65
2023/10/02 03:40:59;;;;;;;;;;;;;;;;;;5113881;28;898;-65
2023/10/02 03:46:14;;;;;;;;;;;;;;;;;;5112710;28;784;-65
2023/10/02 03:48:40;;;;;;;;;;;;;;;;;;5112204;28;1983;-65
2023/10/02 03:51:08;;;;;;;;;;;;;;;;;;5112578;28;848;-66
2023/10/02 03:53:34;;;;;;;;;;;;;;;;;;5112523;28;911;-65
2023/10/02 03:58:50;;;;;;;;;;;;;;;;;;5112916;28;682;-65
2023/10/02 04:01:17;;;;;;;;;;;;;;;;;;5112154;28;852;-65
2023/10/02 04:04:32;;;;;;;;;;;;;;;;;;5112013;28;856;-65
2023/10/02 04:06:34;;;;;;;;;;;;;;;;;;5095942;28;1732;-66
2023/10/02 04:09:11;;;;;;;;;;;;;;;;;;5112308;28;1972;-66
2023/10/02 04:11:39;;;;;;;;;;;;;;;;;;5110598;28;844;-66
2023/10/02 04:14:17;;;;;;;;;;;;;;;;;;5111887;28;931;-66
2023/10/02 04:16:43;;;;;;;;;;;;;;;;;;5111939;28;895;-65
2023/10/02 04:19:08;;;;;;;;;;;;;;;;;;5111288;28;880;-65
2023/10/02 04:21:34;;;;;;;;;;;;;;;;;;5112147;28;876;-65
2023/10/02 04:23:59;;;;;;;;;;;;;;;;;;5111682;28;1036;-65
2023/10/02 04:26:24;;;;;;;;;;;;;;;;;;5110482;28;828;-65
2023/10/02 04:29:26;;;;;;;;;;;;;;;;;;5111882;28;1897;-65
2023/10/02 04:31:44;;;;;;;;;;;;;;;;;;5109562;28;976;-66
2023/10/02 04:34:24;;;;;;;;;;;;;;;;;;5111546;28;867;-65
2023/10/02 04:36:51;;;;;;;;;;;;;;;;;;5111673;28;891;-65
2023/10/02 04:42:12;;;;;;;;;;;;;;;;;;5111760;28;749;-65
2023/10/02 04:44:48;;;;;;;;;;;;;;;;;;5111829;28;824;-65
2023/10/02 04:47:20;;;;;;;;;;;;;;;;;;5111593;28;915;-65
2023/10/02 04:52:53;;;;;;;;;;;;;;;;;;5111633;28;918;-65
2023/10/02 04:55:16;;;;;;;;;;;;;;;;;;5111828;28;988;-65
2023/10/02 04:57:42;;;;;;;;;;;;;;;;;;5112245;28;1181;-64
2023/10/02 05:00:26;;;;;;;;;;;;;;;;;;5111716;28;888;-65
2023/10/02 05:03:09;;;;;;;;;;;;;;;;;;5110950;28;1157;-65
2023/10/02 05:05:36;;;;;;;;;;;;;;;;;;5111934;28;928;-65
2023/10/02 05:08:01;;;;;;;;;;;;;;;;;;5112256;28;1967;-65
2023/10/02 05:10:28;;;;;;;;;;;;;;;;;;5110777;28;1341;-65
2023/10/02 05:12:53;;;;;;;;;;;;;;;;;;5112733;28;872;-65
2023/10/02 05:15:20;;;;;;;;;;;;;;;;;;5112181;28;895;-65
2023/10/02 05:17:47;;;;;;;;;;;;;;;;;;5112361;28;877;-65
2023/10/02 05:20:15;;;;;;;;;;;;;;;;;;5111882;28;863;-65
2023/10/02 05:22:41;;;;;;;;;;;;;;;;;;5109127;28;1269;-65
2023/10/02 05:25:07;;;;;;;;;;;;;;;;;;5108680;28;1159;-65
2023/10/02 05:27:36;;;;;;;;;;;;;;;;;;5111596;28;1906;-66
2023/10/02 05:30:14;;;;;;;;;;;;;;;;;;5111328;28;852;-66
2023/10/02 05:32:40;;;;;;;;;;;;;;;;;;5114814;28;966;-66
2023/10/02 05:37:41;;;;;;;;;;;;;;;;;;5113754;28;1119;-66
2023/10/02 05:40:37;;;;;;;;;;;;;;;;;;5114793;28;923;-66
2023/10/02 05:50:52;;;;;;;;;;;;;;;;;;5114913;28;760;-66
2023/10/02 05:53:32;;;;;;;;;;;;;;;;;;5114345;28;919;-65
2023/10/02 05:56:05;;;;;;;;;;;;;;;;;;5115418;28;840;-66
2023/10/02 05:58:33;;;;;;;;;;;;;;;;;;5114611;28;896;-66
2023/10/02 06:01:03;;;;;;;;;;;;;;;;;;5114488;28;855;-65
2023/10/02 06:03:35;;;;;;;;;;;;;;;;;;5114400;28;938;-66
2023/10/02 06:06:15;;;;;;;;;;;;;;;;;;5114280;28;981;-66
2023/10/02 06:08:48;;;;;;;;;;;;;;;;;;5114688;28;1977;-66
2023/10/02 06:14:13;;;;;;;;;;;;;;;;;;5098191;27;1050;-66
2023/10/02 06:16:42;;;;;;;;;;;;;;;;;;5114820;28;832;-66
2023/10/02 06:19:13;;;;;;;;;;;;;;;;;;5114610;28;840;-66
2023/10/02 06:22:04;;;;;;;;;;;;;;;;;;5114193;28;1033;-66
2023/10/02 06:24:30;;;;;;;;;;;;;;;;;;5114035;28;851;-66
2023/10/02 06:27:04;;;;;;;;;;;;;;;;;;5114261;28;820;-66
2023/10/02 06:29:32;;;;;;;;;;;;;;;;;;5113576;28;1957;-66
2023/10/02 06:32:09;;;;;;;;;;;;;;;;;;5114186;28;953;-66
2023/10/02 06:34:38;;;;;;;;;;;;;;;;;;5113611;28;934;-66
2023/10/02 06:37:07;;;;;;;;;;;;;;;;;;5114333;28;839;-66
2023/10/02 06:39:36;;;;;;;;;;;;;;;;;;5113989;28;1213;-66
2023/10/02 06:42:04;;;;;;;;;;;;;;;;;;5114542;28;855;-66
2023/10/02 06:44:52;;;;;;;;;;;;;;;;;;5113979;28;827;-66
2023/10/02 06:47:18;;;;;;;;;;;;;;;;;;5113792;28;848;-67
2023/10/02 06:49:44;;;;;;;;;;;;;;;;;;5113994;28;1878;-66
2023/10/02 06:52:15;;;;;;;;;;;;;;;;;;5113452;28;814;-67
2023/10/02 06:54:43;;;;;;;;;;;;;;;;;;5114245;28;859;-65
2023/10/02 06:57:11;;;;;;;;;;;;;;;;;;5114031;28;876;-65
2023/10/02 06:59:38;;;;;;;;;;;;;;;;;;5114119;28;907;-65
2023/10/02 07:02:04;;;;;;;;;;;;;;;;;;5113762;28;871;-65
2023/10/02 07:04:36;;;;;;;;;;;;;;;;;;5113648;28;945;-65
2023/10/02 07:07:04;;;;;;;;;;;;;;;;;;5113984;28;911;-67
2023/10/02 07:09:36;;;;;;;;;;;;;;;;;;5112952;28;1902;-66
2023/10/02 07:12:14;;;;;;;;;;;;;;;;;;5112970;28;899;-65
2023/10/02 07:14:41;;;;;;;;;;;;;;;;;;5113351;28;923;-65
2023/10/02 07:17:16;;;;;;;;;;;;;;;;;;5113041;28;896;-66
2023/10/02 07:19:48;;;;;;;;;;;;;;;;;;5113006;28;880;-65
2023/10/02 07:22:16;;;;;;;;;;;;;;;;;;5112775;28;895;-66
2023/10/02 07:24:46;;;;;;;;;;;;;;;;;;5113094;28;902;-65
2023/10/02 07:27:22;;;;;;;;;;;;;;;;;;5112069;28;799;-66
2023/10/02 07:29:51;;;;;;;;;;;;;;;;;;5112732;28;1968;-64
2023/10/02 07:32:18;;;;;;;;;;;;;;;;;;5110973;28;817;-65
2023/10/02 07:34:45;;;;;;;;;;;;;;;;;;5100565;28;1274;-66
2023/10/02 07:37:13;;;;;;;;;;;;;;;;;;5089544;28;1159;-65
2023/10/02 07:39:38;;;;;;;;;;;;;;;;;;5109973;28;1166;-65
2023/10/02 07:42:06;;;;;;;;;;;;;;;;;;5109918;28;1301;-65
2023/10/02 07:44:36;;;;;;;;;;;;;;;;;;5110691;28;1067;-65
2023/10/02 07:47:16;;;;;;;;;;;;;;;;;;5112255;28;905;-65
2023/10/02 07:49:44;;;;;;;;;;;;;;;;;;5112377;28;1918;-65
2023/10/02 07:52:11;;;;;;;;;;;;;;;;;;5112013;28;912;-66
2023/10/02 07:54:45;;;;;;;;;;;;;;;;;;5112020;28;844;-66
2023/10/02 07:57:13;;;;;;;;;;;;;;;;;;5112001;28;854;-65
2023/10/02 07:59:40;;;;;;;;;;;;;;;;;;5112672;28;871;-65
2023/10/02 08:02:21;;;;;;;;;;;;;;;;;;5111517;28;837;-66
2023/10/02 08:04:47;;;;;;;;;;;;;;;;;;5111113;28;960;-65
2023/10/02 08:07:13;;;;;;;;;;;;;;;;;;5111180;28;838;-66
2023/10/02 08:09:39;;;;;;;;;;;;;;;;;;5111128;28;1921;-66
2023/10/02 08:12:08;;;;;;;;;;;;;;;;;;5112211;28;895;-66
2023/10/02 08:14:42;;;;;;;;;;;;;;;;;;5112173;28;887;-66
2023/10/02 08:17:21;;;;;;;;;;;;;;;;;;5112155;28;864;-66
2023/10/02 08:19:56;;;;;;;;;;;;;;;;;;5112379;28;844;-66
2023/10/02 08:22:23;;;;;;;;;;;;;;;;;;5111539;28;959;-66
2023/10/02 08:24:49;;;;;;;;;;;;;;;;;;5112355;28;856;-66
2023/10/02 08:27:14;;;;;;;;;;;;;;;;;;5111247;28;931;-66
2023/10/02 08:29:41;;;;;;;;;;;;;;;;;;5111818;28;1975;-66
2023/10/02 08:32:06;;;;;;;;;;;;;;;;;;5111687;28;911;-66
2023/10/02 08:34:32;;;;;;;;;;;;;;;;;;5111359;28;798;-65
2023/10/02 08:37:09;;;;;;;;;;;;;;;;;;5112272;28;836;-66
2023/10/02 08:39:36;;;;;;;;;;;;;;;;;;5112840;28;1285;-65
2023/10/02 08:42:09;;;;;;;;;;;;;;;;;;5112454;28;926;-67
2023/10/02 08:44:41;;;;;;;;;;;;;;;;;;5112966;28;899;-65
2023/10/02 08:47:07;;;;;;;;;;;;;;;;;;5112060;28;836;-66
2023/10/02 08:49:36;;;;;;;;;;;;;;;;;;5112601;28;1982;-65
2023/10/02 08:52:03;;;;;;;;;;;;;;;;;;5111979;28;879;-65
2023/10/02 08:54:30;;;;;;;;;;;;;;;;;;5111807;28;844;-64
2023/10/02 08:57:06;;;;;;;;;;;;;;;;;;5111533;28;825;-65
2023/10/02 08:59:38;;;;;;;;;;;;;;;;;;5111988;28;844;-64
2023/10/02 09:02:14;;;;;;;;;;;;;;;;;;5111552;28;797;-65
2023/10/02 09:04:51;;;;;;;;;;;;;;;;;;5111206;28;881;-65
2023/10/02 09:10:28;;;;;;;;;;;;;;;;;;5114157;28;658;-66
2023/10/02 09:13:13;;;;;;;;;;;;;;;;;;5116047;28;875;-65
2023/10/02 09:15:44;;;;;;;;;;;;;;;;;;5115224;28;873;-66
2023/10/02 09:18:22;;;;;;;;;;;;;;;;;;5115096;28;851;-66
2023/10/02 09:20:53;;;;;;;;;;;;;;;;;;5115153;28;936;-66
2023/10/02 09:23:22;;;;;;;;;;;;;;;;;;5114733;28;907;-66
2023/10/02 09:26:16;;;;;;;;;;;;;;;;;;5115213;28;923;-65
2023/10/02 09:28:42;;;;;;;;;;;;;;;;;;5115378;28;1965;-66
2023/10/02 09:31:14;;;;;;;;;;;;;;;;;;5115072;27;844;-65
2023/10/02 09:33:40;;;;;;;;;;;;;;;;;;5115658;28;884;-65
2023/10/02 09:36:06;;;;;;;;;;;;;;;;;;5115065;28;832;-66
2023/10/02 09:38:32;;;;;;;;;;;;;;;;;;5114516;28;1323;-65
2023/10/02 09:43:30;;;;;;;;;;;;;;;;;;5115019;28;847;-66
2023/10/02 09:45:58;;;;;;;;;;;;;;;;;;5115252;28;867;-66
2023/10/02 09:51:27;;;;;;;;;;;;;;;;;;5071895;28;1223;-66
2023/10/02 09:54:05;;;;;;;;;;;;;;;;;;5107330;28;997;-66
2023/10/02 09:56:51;;;;;;;;;;;;;;;;;;5114739;28;863;-66
2023/10/02 09:59:22;;;;;;;;;;;;;;;;;;5113943;28;800;-66
2023/10/02 10:02:07;;;;;;;;;;;;;;;;;;5114837;28;901;-66
2023/10/02 10:04:59;;;;;;;;;;;;;;;;;;5113726;28;881;-66
2023/10/02 10:07:37;;;;;;;;;;;;;;;;;;5114271;28;840;-66
2023/10/02 10:10:27;;;;;;;;;;;;;;;;;;5114474;27;871;-66
2023/10/02 10:12:54;;;;;;;;;;;;;;;;;;5114749;28;984;-66
2023/10/02 10:15:24;;;;;;;;;;;;;;;;;;5114610;28;967;-66
2023/10/02 10:17:52;;;;;;;;;;;;;;;;;;5114932;28;824;-66
2023/10/02 10:20:26;;;;;;;;;;;;;;;;;;5114398;28;845;-66
2023/10/02 10:22:55;;;;;;;;;;;;;;;;;;5114904;28;875;-66
2023/10/02 10:27:54;;;;;;;;;;;;;;;;;;5114976;28;1898;-66
2023/10/02 10:30:24;;;;;;;;;;;;;;;;;;5115329;28;847;-66
2023/10/02 10:35:34;;;;;;;;;;;;;;;;;;5114885;28;740;-66
2023/10/02 10:38:03;;;;;;;;;;;;;;;;;;5113361;28;1095;-66
2023/10/02 10:40:43;;;;;;;;;;;;;;;;;;5114294;28;871;-66
2023/10/02 10:43:12;;;;;;;;;;;;;;;;;;5113164;28;1258;-66
2023/10/02 10:45:39;;;;;;;;;;;;;;;;;;5113911;28;871;-66
2023/10/02 10:48:18;;;;;;;;;;;;;;;;;;5113820;28;1909;-66
2023/10/02 10:50:56;;;;;;;;;;;;;;;;;;5113810;28;831;-66
2023/10/02 10:53:32;;;;;;;;;;;;;;;;;;5112612;28;927;-66
2023/10/02 10:56:16;;;;;;;;;;;;;;;;;;5113422;28;947;-66
2023/10/02 10:58:43;;;;;;;;;;;;;;;;;;5113987;28;927;-66
2023/10/02 11:01:13;;;;;;;;;;;;;;;;;;5113032;28;959;-66
2023/10/02 11:03:38;;;;;;;;;;;;;;;;;;5113294;28;841;-66
2023/10/02 11:06:04;;;;;;;;;;;;;;;;;;5112805;28;1037;-66
2023/10/02 11:08:31;;;;;;;;;;;;;;;;;;5113057;28;1889;-66
2023/10/02 11:11:11;;;;;;;;;;;;;;;;;;5113452;28;773;-66
2023/10/02 11:13:58;;;;;;;;;;;;;;;;;;5113056;27;813;-66
2023/10/02 11:16:23;;;;;;;;;;;;;;;;;;5112704;28;900;-66
2023/10/02 11:19:10;;;;;;;;;;;;;;;;;;5113359;28;821;-67
2023/10/02 11:21:45;;;;;;;;;;;;;;;;;;5111679;28;844;-66
2023/10/02 11:24:22;;;;;;;;;;;;;;;;;;5113305;28;1663;-66
2023/10/02 11:26:49;;;;;;;;;;;;;;;;;;5113019;28;793;-66
2023/10/02 11:29:20;;;;;;;;;;;;;;;;;;5111761;28;1933;-66
2023/10/02 11:31:55;;;;;;;;;;;;;;;;;;5113168;27;860;-66
2023/10/02 11:34:21;;;;;;;;;;;;;;;;;;5112317;28;879;-66
2023/10/02 11:36:52;;;;;;;;;;;;;;;;;;5112932;28;1074;-66
2023/10/02 11:39:19;;;;;;;;;;;;;;;;;;5111819;28;1194;-66
2023/10/02 11:41:46;;;;;;;;;;;;;;;;;;5112279;28;852;-66
2023/10/02 11:44:13;;;;;;;;;;;;;;;;;;5112801;27;819;-66
2023/10/02 11:46:41;;;;;;;;;;;;;;;;;;5112551;28;898;-66
2023/10/02 11:49:07;;;;;;;;;;;;;;;;;;5112555;28;1976;-66
2023/10/02 11:51:33;;;;;;;;;;;;;;;;;;5110625;28;822;-65
2023/10/02 11:53:59;;;;;;;;;;;;;;;;;;5109179;27;1179;-65
2023/10/02 11:56:26;;;;;;;;;;;;;;;;;;5097239;28;1215;-66
2023/10/02 11:58:56;;;;;;;;;;;;;;;;;;5091162;28;1190;-66
2023/10/02 12:01:22;;;;;;;;;;;;;;;;;;5091675;28;876;-66
2023/10/02 12:03:48;;;;;;;;;;;;;;;;;;5092539;28;919;-66
2023/10/02 12:06:14;;;;;;;;;;;;;;;;;;5091877;28;895;-65
2023/10/02 12:08:40;;;;;;;;;;;;;;;;;;5092007;28;1909;-66
2023/10/02 12:11:08;;;;;;;;;;;;;;;;;;5092078;28;906;-65
2023/10/02 12:13:33;;;;;;;;;;;;;;;;;;5092033;28;870;-65
2023/10/02 12:15:58;;;;;;;;;;;;;;;;;;5092089;28;920;-66
2023/10/02 12:18:24;;;;;;;;;;;;;;;;;;5091782;28;931;-66
2023/10/02 12:20:49;;;;;;;;;;;;;;;;;;5092152;28;869;-66
2023/10/02 12:23:16;;;;;;;;;;;;;;;;;;5091826;28;812;-65
2023/10/02 12:25:48;;;;;;;;;;;;;;;;;;5090514;28;935;-66
2023/10/02 12:28:13;;;;;;;;;;;;;;;;;;5091541;28;1954;-66
2023/10/02 12:30:39;;;;;;;;;;;;;;;;;;5091945;28;856;-66
2023/10/02 12:33:04;;;;;;;;;;;;;;;;;;5092191;28;880;-66
2023/10/02 12:35:40;;;;;;;;;;;;;;;;;;5092055;28;837;-66
2023/10/02 12:38:07;;;;;;;;;;;;;;;;;;5091090;28;1316;-66
2023/10/02 12:40:33;;;;;;;;;;;;;;;;;;5090712;28;938;-66
2023/10/02 12:43:00;;;;;;;;;;;;;;;;;;5091328;28;917;-66
2023/10/02 12:45:26;;;;;;;;;;;;;;;;;;5090976;28;921;-65
2023/10/02 12:47:53;;;;;;;;;;;;;;;;;;5091570;28;1920;-66
2023/10/02 12:50:20;;;;;;;;;;;;;;;;;;5090920;28;924;-66
2023/10/02 12:52:45;;;;;;;;;;;;;;;;;;5091804;28;841;-66
2023/10/02 12:55:11;;;;;;;;;;;;;;;;;;5091996;28;903;-66
2023/10/02 12:57:37;;;;;;;;;;;;;;;;;;5091399;28;864;-66
2023/10/02 13:00:02;;;;;;;;;;;;;;;;;;5090530;28;1230;-66
2023/10/02 13:02:28;;;;;;;;;;;;;;;;;;5091243;28;875;-66
2023/10/02 13:04:54;;;;;;;;;;;;;;;;;;5090543;28;899;-66
2023/10/02 13:07:20;;;;;;;;;;;;;;;;;;5090493;28;1241;-66
2023/10/02 13:09:46;;;;;;;;;;;;;;;;;;5108626;28;1955;-66
2023/10/02 13:12:11;;;;;;;;;;;;;;;;;;5100155;28;1226;-66
2023/10/02 13:14:37;;;;;;;;;;;;;;;;;;5108541;28;1218;-66
2023/10/02 13:17:03;;;;;;;;;;;;;;;;;;5098817;28;1225;-65
2023/10/02 13:19:28;;;;;;;;;;;;;;;;;;5088626;28;1230;-66
2023/10/02 13:21:53;;;;;;;;;;;;;;;;;;5091437;28;829;-66
2023/10/02 13:24:23;;;;;;;;;;;;;;;;;;5090888;28;824;-65
2023/10/02 13:26:48;;;;;;;;;;;;;;;;;;5091039;28;797;-66
2023/10/02 13:29:16;;;;;;;;;;;;;;;;;;5090904;28;1889;-66
2023/10/02 13:31:41;;;;;;;;;;;;;;;;;;5090302;28;1020;-66
2023/10/02 13:34:06;;;;;;;;;;;;;;;;;;5090555;28;800;-66
2023/10/02 13:36:33;;;;;;;;;;;;;;;;;;5090481;28;876;-66
2023/10/02 13:38:59;;;;;;;;;;;;;;;;;;5090398;28;1119;-66
2023/10/02 13:41:25;;;;;;;;;;;;;;;;;;5090202;28;939;-66
2023/10/02 13:43:55;;;;;;;;;;;;;;;;;;5091030;28;800;-65
2023/10/02 13:46:21;;;;;;;;;;;;;;;;;;5090485;28;839;-65
2023/10/02 13:48:52;;;;;;;;;;;;;;;;;;5090798;28;1926;-66
2023/10/02 13:51:18;;;;;;;;;;;;;;;;;;5090708;28;821;-66
2023/10/02 13:53:44;;;;;;;;;;;;;;;;;;5094273;28;959;-66
2023/10/02 13:56:13;;;;;;;;;;;;;;;;;;5094595;28;805;-66
2023/10/02 13:58:42;;;;;;;;;;;;;;;;;;5093803;28;876;-66
2023/10/02 14:01:08;;;;;;;;;;;;;;;;;;5093841;28;844;-65
2023/10/02 14:03:34;;;;;;;;;;;;;;;;;;5093741;28;900;-66
2023/10/02 14:06:00;;;;;;;;;;;;;;;;;;5094064;28;890;-67
2023/10/02 14:08:25;;;;;;;;;;;;;;;;;;5093859;28;1897;-67
2023/10/02 14:10:51;;;;;;;;;;;;;;;;;;5093748;28;896;-66
2023/10/02 14:13:16;;;;;;;;;;;;;;;;;;5094197;28;921;-66
2023/10/02 14:15:41;;;;;;;;;;;;;;;;;;5093629;28;816;-66
2023/10/02 14:18:08;;;;;;;;;;;;;;;;;;5094434;28;840;-67
2023/10/02 14:20:38;;;;;;;;;;;;;;;;;;5094227;28;824;-66
2023/10/02 14:23:05;;;;;;;;;;;;;;;;;;5094509;28;864;-66
2023/10/02 14:25:32;;;;;;;;;;;;;;;;;;5094075;28;937;-67
2023/10/02 14:27:58;;;;;;;;;;;;;;;;;;5094227;28;1907;-66
2023/10/02 14:30:23;;;;;;;;;;;;;;;;;;5094561;28;863;-67
2023/10/02 14:32:49;;;;;;;;;;;;;;;;;;5094846;28;868;-67
2023/10/02 14:35:17;;;;;;;;;;;;;;;;;;5094571;28;855;-66
2023/10/02 14:37:43;;;;;;;;;;;;;;;;;;5093738;28;1050;-67
2023/10/02 14:40:11;;;;;;;;;;;;;;;;;;5094110;28;1332;-67
2023/10/02 14:42:37;;;;;;;;;;;;;;;;;;5093584;28;841;-67
2023/10/02 14:45:03;;;;;;;;;;;;;;;;;;5093399;28;836;-67
2023/10/02 14:47:31;;;;;;;;;;;;;;;;;;5091877;28;868;-67
2023/10/02 14:49:56;;;;;;;;;;;;;;;;;;5094414;28;1914;-66
2023/10/02 14:52:22;;;;;;;;;;;;;;;;;;5092682;28;2083;-67
2023/10/02 14:54:48;;;;;;;;;;;;;;;;;;5093591;28;789;-67
2023/10/02 14:57:14;;;;;;;;;;;;;;;;;;5093409;28;848;-66
2023/10/02 14:59:40;;;;;;;;;;;;;;;;;;5091894;28;837;-67
2023/10/02 15:02:05;;;;;;;;;;;;;;;;;;5093742;28;777;-66
2023/10/02 15:04:31;;;;;;;;;;;;;;;;;;5091846;28;886;-66
2023/10/02 15:06:57;;;;;;;;;;;;;;;;;;5093289;28;817;-66
2023/10/02 15:09:23;;;;;;;;;;;;;;;;;;5099728;28;1911;-66
2023/10/02 15:11:49;;;;;;;;;;;;;;;;;;5108495;28;1083;-66
2023/10/02 15:14:14;;;;;;;;;;;;;;;;;;5096444;28;1152;-66
2023/10/02 15:16:40;;;;;;;;;;;;;;;;;;5089359;28;1178;-67
2023/10/02 15:19:05;;;;;;;;;;;;;;;;;;5092985;28;920;-67
2023/10/02 15:21:32;;;;;;;;;;;;;;;;;;5092989;28;1010;-66
2023/10/02 15:23:58;;;;;;;;;;;;;;;;;;5093117;28;895;-66
2023/10/02 15:26:23;;;;;;;;;;;;;;;;;;5092782;28;845;-66
2023/10/02 15:28:49;;;;;;;;;;;;;;;;;;5092553;28;1905;-67
2023/10/02 15:31:14;;;;;;;;;;;;;;;;;;5093563;28;863;-66
2023/10/02 15:33:41;;;;;;;;;;;;;;;;;;5092501;28;919;-66
2023/10/02 15:36:08;;;;;;;;;;;;;;;;;;5092816;28;898;-66
2023/10/02 15:38:33;;;;;;;;;;;;;;;;;;5092395;28;1062;-66
2023/10/02 15:41:01;;;;;;;;;;;;;;;;;;5092174;28;824;-66
2023/10/02 15:43:28;;;;;;;;;;;;;;;;;;5092175;28;890;-66
2023/10/02 15:45:54;;;;;;;;;;;;;;;;;;5092765;28;872;-66
2023/10/02 15:48:20;;;;;;;;;;;;;;;;;;5092718;28;1909;-66
2023/10/02 15:50:47;;;;;;;;;;;;;;;;;;5090442;28;2356;-66
2023/10/02 15:53:12;;;;;;;;;;;;;;;;;;5092830;28;947;-66
2023/10/02 15:55:37;;;;;;;;;;;;;;;;;;5091482;28;919;-66
2023/10/02 15:58:03;;;;;;;;;;;;;;;;;;5091103;28;860;-66
2023/10/02 16:00:29;;;;;;;;;;;;;;;;;;5091328;28;964;-66
2023/10/02 16:02:55;;;;;;;;;;;;;;;;;;5089447;28;1439;-66
2023/10/02 16:05:21;;;;;;;;;;;;;;;;;;5090903;28;904;-66
2023/10/02 16:07:51;;;;;;;;;;;;;;;;;;5091501;28;1969;-65
2023/10/02 16:10:17;;;;;;;;;;;;;;;;;;5092029;28;844;-66
2023/10/02 16:12:45;;;;;;;;;;;;;;;;;;5092587;28;867;-66
2023/10/02 16:15:14;;;;;;;;;;;;;;;;;;5090145;28;1591;-66
2023/10/02 16:17:40;;;;;;;;;;;;;;;;;;5091686;28;1183;-66
2023/10/02 16:20:06;;;;;;;;;;;;;;;;;;5092894;28;1199;-66
2023/10/02 16:22:34;;;;;;;;;;;;;;;;;;5096734;28;1194;-66
2023/10/02 16:25:04;;;;;;;;;;;;;;;;;;5092841;28;832;-66
2023/10/02 16:27:30;;;;;;;;;;;;;;;;;;5092749;28;864;-66
2023/10/02 16:29:55;;;;;;;;;;;;;;;;;;5092311;28;1914;-66
2023/10/02 16:32:20;;;;;;;;;;;;;;;;;;5092535;28;825;-66
2023/10/02 16:34:46;;;;;;;;;;;;;;;;;;5091825;28;884;-66
2023/10/02 16:37:11;;;;;;;;;;;;;;;;;;5092005;28;877;-66
2023/10/02 16:39:37;;;;;;;;;;;;;;;;;;5091296;28;1252;-66
2023/10/02 16:42:03;;;;;;;;;;;;;;;;;;5091366;28;943;-66
2023/10/02 16:44:28;;;;;;;;;;;;;;;;;;5091311;28;888;-66
2023/10/02 16:46:54;;;;;;;;;;;;;;;;;;5091786;28;843;-66
2023/10/02 16:49:19;;;;;;;;;;;;;;;;;;5091697;28;1913;-66
2023/10/02 16:51:44;;;;;;;;;;;;;;;;;;5091088;28;1014;-66
2023/10/02 16:54:11;;;;;;;;;;;;;;;;;;5091416;28;875;-66
2023/10/02 16:56:36;;;;;;;;;;;;;;;;;;5091428;28;994;-66
2023/10/02 16:59:02;;;;;;;;;;;;;;;;;;5091279;28;842;-66
2023/10/02 17:01:27;;;;;;;;;;;;;;;;;;5091109;28;872;-66
2023/10/02 17:03:53;;;;;;;;;;;;;;;;;;5091465;28;846;-66
2023/10/02 17:06:20;;;;;;;;;;;;;;;;;;5091142;28;906;-66
2023/10/02 17:08:48;;;;;;;;;;;;;;;;;;5090691;28;1901;-66
2023/10/02 17:11:15;;;;;;;;;;;;;;;;;;5091473;28;884;-66
2023/10/02 17:13:40;;;;;;;;;;;;;;;;;;5091085;28;912;-66
2023/10/02 17:16:06;;;;;;;;;;;;;;;;;;5091194;28;848;-66
2023/10/02 17:18:31;;;;;;;;;;;;;;;;;;5091194;28;954;-66
2023/10/02 17:20:57;;;;;;;;;;;;;;;;;;5091360;28;904;-66
2023/10/02 17:23:22;;;;;;;;;;;;;;;;;;5091240;28;835;-65
2023/10/02 17:25:48;;;;;;;;;;;;;;;;;;5091324;28;786;-66
2023/10/02 17:28:13;;;;;;;;;;;;;;;;;;5093128;28;1906;-66
2023/10/02 17:30:38;;;;;;;;;;;;;;;;;;5094978;28;932;-66
2023/10/02 17:33:04;;;;;;;;;;;;;;;;;;5095038;28;1062;-66
2023/10/02 17:35:29;;;;;;;;;;;;;;;;;;5094566;28;948;-66
2023/10/02 17:37:54;;;;;;;;;;;;;;;;;;5095174;28;907;-66
2023/10/02 17:40:20;;;;;;;;;;;;;;;;;;5094927;28;1073;-66
2023/10/02 17:42:46;;;;;;;;;;;;;;;;;;5094854;28;835;-66
2023/10/02 17:45:11;;;;;;;;;;;;;;;;;;5095342;28;1194;-66
2023/10/02 17:47:41;;;;;;;;;;;;;;;;;;5095361;28;861;-67
2023/10/02 17:50:07;;;;;;;;;;;;;;;;;;5094136;28;1909;-66
2023/10/02 17:52:32;;;;;;;;;;;;;;;;;;5095239;28;813;-67
2023/10/02 17:54:58;;;;;;;;;;;;;;;;;;5095832;28;856;-66
2023/10/02 17:57:25;;;;;;;;;;;;;;;;;;5095497;28;820;-67
2023/10/02 17:59:52;;;;;;;;;;;;;;;;;;5095147;28;883;-66
2023/10/02 18:02:17;;;;;;;;;;;;;;;;;;5095280;28;818;-67
2023/10/02 18:04:42;;;;;;;;;;;;;;;;;;5094514;28;1027;-67
2023/10/02 18:07:08;;;;;;;;;;;;;;;;;;5094495;28;785;-67
2023/10/02 18:09:35;;;;;;;;;;;;;;;;;;5092725;28;1968;-66